sensor_id;sensor_type;location;lat;lon;timestamp;pressure;altitude;pressure_sealevel;temperature;humidity
69713;BME280;56980;51.826;4.424;2022-10-22T00:01:32;100896.13;;;16.62;76.03
69713;BME280;56980;51.826;4.424;2022-10-22T00:03:57;100907.63;;;16.67;76.05
69713;BME280;56980;51.826;4.424;2022-10-22T00:06:23;100918.56;;;16.67;76.16
69713;BME280;56980;51.826;4.424;2022-10-22T00:08:49;100918.28;;;16.64;76.30
69713;BME280;56980;51.826;4.424;2022-10-22T00:11:16;100914.25;;;16.60;76.61
69713;BME280;56980;51.826;4.424;2022-10-22T00:13:43;100892.78;;;16.38;76.69
69713;BME280;56980;51.826;4.424;2022-10-22T00:16:09;100924.25;;;16.63;76.96
69713;BME280;56980;51.826;4.424;2022-10-22T00:18:35;100910.84;;;16.50;76.64
69713;BME280;56980;51.826;4.424;2022-10-22T00:21:01;100908.69;;;16.54;76.80
69713;BME280;56980;51.826;4.424;2022-10-22T00:23:26;100895.25;;;16.36;76.60
69713;BME280;56980;51.826;4.424;2022-10-22T00:25:52;100925.94;;;16.60;76.80
69713;BME280;56980;51.826;4.424;2022-10-22T00:28:18;100909.09;;;16.33;77.08
69713;BME280;56980;51.826;4.424;2022-10-22T00:30:43;100910.31;;;16.32;77.00
69713;BME280;56980;51.826;4.424;2022-10-22T00:33:09;100928.22;;;16.47;76.59
69713;BME280;56980;51.826;4.424;2022-10-22T00:35:34;100920.94;;;16.44;76.94
69713;BME280;56980;51.826;4.424;2022-10-22T00:38:00;100923.13;;;16.40;76.76
69713;BME280;56980;51.826;4.424;2022-10-22T00:40:26;100896.56;;;16.26;77.01
69713;BME280;56980;51.826;4.424;2022-10-22T00:42:51;100897.44;;;16.17;77.41
69713;BME280;56980;51.826;4.424;2022-10-22T00:45:25;100933.13;;;16.43;77.50
69713;BME280;56980;51.826;4.424;2022-10-22T00:48:18;100906.97;;;16.22;76.90
69713;BME280;56980;51.826;4.424;2022-10-22T00:50:41;100935.59;;;16.41;77.59
69713;BME280;56980;51.826;4.424;2022-10-22T00:53:12;100946.31;;;16.45;77.07
69713;BME280;56980;51.826;4.424;2022-10-22T00:55:40;100881.34;;;16.05;77.14
69713;BME280;56980;51.826;4.424;2022-10-22T00:58:08;100946.91;;;16.34;77.71
69713;BME280;56980;51.826;4.424;2022-10-22T01:00:34;100907.72;;;16.08;77.46
69713;BME280;56980;51.826;4.424;2022-10-22T01:03:00;100910.56;;;16.13;77.31
69713;BME280;56980;51.826;4.424;2022-10-22T01:05:32;100927.50;;;16.17;77.72
69713;BME280;56980;51.826;4.424;2022-10-22T01:08:02;100926.75;;;16.17;77.08
69713;BME280;56980;51.826;4.424;2022-10-22T01:15:44;100969.63;;;16.40;77.00
69713;BME280;56980;51.826;4.424;2022-10-22T01:19:06;100945.63;;;16.30;77.06
69713;BME280;56980;51.826;4.424;2022-10-22T01:27:11;100966.34;;;16.36;77.40
69713;BME280;56980;51.826;4.424;2022-10-22T01:29:50;100961.44;;;16.40;77.10
69713;BME280;56980;51.826;4.424;2022-10-22T01:32:19;100936.19;;;16.16;76.95
69713;BME280;56980;51.826;4.424;2022-10-22T01:34:49;100957.84;;;16.34;76.78
69713;BME280;56980;51.826;4.424;2022-10-22T01:37:18;100943.44;;;16.19;77.01
69713;BME280;56980;51.826;4.424;2022-10-22T01:39:47;100957.56;;;16.32;76.95
69713;BME280;56980;51.826;4.424;2022-10-22T01:42:14;100957.03;;;16.28;76.76
69713;BME280;56980;51.826;4.424;2022-10-22T01:44:39;100955.22;;;16.25;76.85
69713;BME280;56980;51.826;4.424;2022-10-22T01:47:30;100952.38;;;16.34;76.88
69713;BME280;56980;51.826;4.424;2022-10-22T01:53:16;100956.56;;;16.30;76.59
69713;BME280;56980;51.826;4.424;2022-10-22T01:59:02;100955.81;;;16.29;76.39
69713;BME280;56980;51.826;4.424;2022-10-22T02:01:58;100938.25;;;16.21;76.08
69713;BME280;56980;51.826;4.424;2022-10-22T02:04:33;100948.25;;;16.24;76.62
69713;BME280;56980;51.826;4.424;2022-10-22T02:07:03;100946.72;;;16.23;76.75
69713;BME280;56980;51.826;4.424;2022-10-22T02:09:31;100934.88;;;16.11;76.55
69713;BME280;56980;51.826;4.424;2022-10-22T02:12:00;100930.91;;;16.12;76.76
69713;BME280;56980;51.826;4.424;2022-10-22T02:14:28;100952.03;;;16.27;76.54
69713;BME280;56980;51.826;4.424;2022-10-22T02:16:55;100942.00;;;16.23;76.56
69713;BME280;56980;51.826;4.424;2022-10-22T02:19:41;100952.03;;;16.27;76.67
69713;BME280;56980;51.826;4.424;2022-10-22T02:22:10;100952.56;;;16.31;76.56
69713;BME280;56980;51.826;4.424;2022-10-22T02:24:36;100947.00;;;16.25;76.39
69713;BME280;56980;51.826;4.424;2022-10-22T02:27:14;100954.19;;;16.22;76.84
69713;BME280;56980;51.826;4.424;2022-10-22T02:32:21;100931.66;;;16.13;76.14
69713;BME280;56980;51.826;4.424;2022-10-22T02:34:49;100948.63;;;16.17;76.64
69713;BME280;56980;51.826;4.424;2022-10-22T02:37:15;100960.50;;;16.14;77.02
69713;BME280;56980;51.826;4.424;2022-10-22T02:39:43;100946.09;;;16.13;76.50
69713;BME280;56980;51.826;4.424;2022-10-22T02:42:09;100943.16;;;16.17;76.65
69713;BME280;56980;51.826;4.424;2022-10-22T02:44:36;100947.13;;;16.16;76.35
69713;BME280;56980;51.826;4.424;2022-10-22T02:47:02;100909.72;;;15.93;76.55
69713;BME280;56980;51.826;4.424;2022-10-22T02:49:27;100951.94;;;16.21;76.30
69713;BME280;56980;51.826;4.424;2022-10-22T02:51:53;100938.66;;;16.14;76.47
69713;BME280;56980;51.826;4.424;2022-10-22T02:54:18;100954.66;;;16.21;76.27
69713;BME280;56980;51.826;4.424;2022-10-22T02:56:43;100905.84;;;15.84;76.65
69713;BME280;56980;51.826;4.424;2022-10-22T02:59:09;100912.28;;;15.81;76.51
69713;BME280;56980;51.826;4.424;2022-10-22T03:01:34;100955.97;;;16.11;76.41
69713;BME280;56980;51.826;4.424;2022-10-22T03:04:00;100921.88;;;15.92;76.29
69713;BME280;56980;51.826;4.424;2022-10-22T03:06:25;100940.91;;;16.01;76.47
69713;BME280;56980;51.826;4.424;2022-10-22T03:08:50;100964.28;;;16.16;76.23
69713;BME280;56980;51.826;4.424;2022-10-22T03:11:16;100953.91;;;16.06;76.22
69713;BME280;56980;51.826;4.424;2022-10-22T03:13:41;100953.91;;;16.06;76.36
69713;BME280;56980;51.826;4.424;2022-10-22T03:16:07;100964.47;;;16.13;76.52
69713;BME280;56980;51.826;4.424;2022-10-22T03:18:35;100961.44;;;16.11;76.17
69713;BME280;56980;51.826;4.424;2022-10-22T03:21:07;100968.13;;;16.10;76.51
69713;BME280;56980;51.826;4.424;2022-10-22T03:23:34;100953.16;;;15.91;76.26
69713;BME280;56980;51.826;4.424;2022-10-22T03:26:00;100977.09;;;16.10;76.24
69713;BME280;56980;51.826;4.424;2022-10-22T03:28:26;100959.59;;;16.02;76.64
69713;BME280;56980;51.826;4.424;2022-10-22T03:30:51;100968.25;;;16.01;76.76
69713;BME280;56980;51.826;4.424;2022-10-22T03:33:17;100978.97;;;16.04;76.95
69713;BME280;56980;51.826;4.424;2022-10-22T03:35:44;100954.88;;;15.88;76.91
69713;BME280;56980;51.826;4.424;2022-10-22T03:38:11;100953.34;;;15.87;77.18
69713;BME280;56980;51.826;4.424;2022-10-22T03:40:36;100981.91;;;16.01;77.07
69713;BME280;56980;51.826;4.424;2022-10-22T03:43:02;100965.03;;;15.88;76.91
69713;BME280;56980;51.826;4.424;2022-10-22T03:45:27;100959.00;;;15.83;77.13
69713;BME280;56980;51.826;4.424;2022-10-22T03:47:53;100960.34;;;15.88;77.11
69713;BME280;56980;51.826;4.424;2022-10-22T03:50:18;100976.16;;;15.99;77.11
69713;BME280;56980;51.826;4.424;2022-10-22T03:52:44;100959.13;;;15.89;76.68
69713;BME280;56980;51.826;4.424;2022-10-22T03:55:09;100981.06;;;15.95;77.11
69713;BME280;56980;51.826;4.424;2022-10-22T03:57:35;100998.97;;;15.96;77.15
69713;BME280;56980;51.826;4.424;2022-10-22T04:00:00;100980.78;;;15.93;77.06
69713;BME280;56980;51.826;4.424;2022-10-22T04:02:26;100990.28;;;15.97;77.09
69713;BME280;56980;51.826;4.424;2022-10-22T04:04:51;100993.59;;;16.01;77.13
69713;BME280;56980;51.826;4.424;2022-10-22T04:07:17;100960.88;;;15.77;77.23
69713;BME280;56980;51.826;4.424;2022-10-22T04:09:42;100990.28;;;15.97;77.03
69713;BME280;56980;51.826;4.424;2022-10-22T04:12:08;100987.38;;;16.01;77.10
69713;BME280;56980;51.826;4.424;2022-10-22T04:14:33;100994.38;;;16.02;76.99
69713;BME280;56980;51.826;4.424;2022-10-22T04:16:59;100980.97;;;15.89;76.79
69713;BME280;56980;51.826;4.424;2022-10-22T04:19:24;100977.66;;;15.85;77.20
69713;BME280;56980;51.826;4.424;2022-10-22T04:21:50;100995.00;;;15.97;77.04
69713;BME280;56980;51.826;4.424;2022-10-22T04:24:15;100993.50;;;15.96;77.04
69713;BME280;56980;51.826;4.424;2022-10-22T04:26:43;100995.09;;;15.88;76.97
69713;BME280;56980;51.826;4.424;2022-10-22T04:29:08;100996.13;;;15.90;76.98
69713;BME280;56980;51.826;4.424;2022-10-22T04:31:36;100989.34;;;15.85;77.19
69713;BME280;56980;51.826;4.424;2022-10-22T04:34:02;101008.94;;;15.84;77.40
69713;BME280;56980;51.826;4.424;2022-10-22T04:36:27;101005.44;;;15.83;77.16
69713;BME280;56980;51.826;4.424;2022-10-22T04:38:58;100999.41;;;15.79;77.35
69713;BME280;56980;51.826;4.424;2022-10-22T04:41:27;101006.84;;;15.79;77.49
69713;BME280;56980;51.826;4.424;2022-10-22T04:43:54;101006.09;;;15.78;77.09
69713;BME280;56980;51.826;4.424;2022-10-22T04:46:19;101003.00;;;15.85;77.05
69713;BME280;56980;51.826;4.424;2022-10-22T04:48:45;100988.16;;;15.63;76.99
69713;BME280;56980;51.826;4.424;2022-10-22T04:51:19;101011.28;;;15.76;77.42
69713;BME280;56980;51.826;4.424;2022-10-22T04:53:44;101028.06;;;15.84;77.39
69713;BME280;56980;51.826;4.424;2022-10-22T04:56:12;101026.00;;;15.79;77.52
69713;BME280;56980;51.826;4.424;2022-10-22T04:58:41;101010.91;;;15.69;77.26
69713;BME280;56980;51.826;4.424;2022-10-22T05:01:15;101033.63;;;15.75;77.22
69713;BME280;56980;51.826;4.424;2022-10-22T05:03:41;101017.00;;;15.64;77.58
69713;BME280;56980;51.826;4.424;2022-10-22T05:06:08;101034.28;;;15.84;76.83
69713;BME280;56980;51.826;4.424;2022-10-22T05:08:34;101040.97;;;15.69;77.60
69713;BME280;56980;51.826;4.424;2022-10-22T05:14:23;101047.75;;;15.73;77.44
69713;BME280;56980;51.826;4.424;2022-10-22T05:16:50;101036.97;;;15.55;78.27
69713;BME280;56980;51.826;4.424;2022-10-22T05:19:21;101041.69;;;15.69;77.89
69713;BME280;56980;51.826;4.424;2022-10-22T05:21:51;101030.31;;;15.71;77.25
69713;BME280;56980;51.826;4.424;2022-10-22T05:24:17;101037.94;;;15.67;77.90
69713;BME280;56980;51.826;4.424;2022-10-22T05:26:43;101032.00;;;15.68;78.09
69713;BME280;56980;51.826;4.424;2022-10-22T05:29:08;101028.56;;;15.82;76.87
69713;BME280;56980;51.826;4.424;2022-10-22T05:31:34;101029.53;;;15.70;77.72
69713;BME280;56980;51.826;4.424;2022-10-22T05:34:03;101034.75;;;15.68;77.60
69713;BME280;56980;51.826;4.424;2022-10-22T05:36:29;101034.19;;;15.79;77.15
69713;BME280;56980;51.826;4.424;2022-10-22T05:38:55;101020.56;;;15.55;77.62
69713;BME280;56980;51.826;4.424;2022-10-22T05:41:22;101048.09;;;15.66;78.08
69713;BME280;56980;51.826;4.424;2022-10-22T05:43:48;101040.19;;;15.68;77.93
69713;BME280;56980;51.826;4.424;2022-10-22T05:46:17;101053.63;;;15.81;77.34
69713;BME280;56980;51.826;4.424;2022-10-22T05:48:43;101056.03;;;15.79;77.45
69713;BME280;56980;51.826;4.424;2022-10-22T05:51:11;101061.88;;;15.72;77.90
69713;BME280;56980;51.826;4.424;2022-10-22T05:53:39;101062.06;;;15.83;77.54
69713;BME280;56980;51.826;4.424;2022-10-22T05:56:12;101058.03;;;15.78;77.41
69713;BME280;56980;51.826;4.424;2022-10-22T06:02:05;101068.44;;;15.65;78.23
69713;BME280;56980;51.826;4.424;2022-10-22T06:04:31;101070.59;;;15.61;78.42
69713;BME280;56980;51.826;4.424;2022-10-22T06:06:59;101069.09;;;15.60;77.99
69713;BME280;56980;51.826;4.424;2022-10-22T06:09:35;101048.22;;;15.48;78.12
69713;BME280;56980;51.826;4.424;2022-10-22T06:12:04;101045.63;;;15.44;77.85
69713;BME280;56980;51.826;4.424;2022-10-22T06:14:33;101069.44;;;15.53;78.45
69713;BME280;56980;51.826;4.424;2022-10-22T06:16:59;101080.88;;;15.66;77.86
69713;BME280;56980;51.826;4.424;2022-10-22T06:19:25;101054.25;;;15.52;77.87
69713;BME280;56980;51.826;4.424;2022-10-22T06:21:51;101064.84;;;15.59;77.90
69713;BME280;56980;51.826;4.424;2022-10-22T06:24:18;101061.53;;;15.55;78.16
69713;BME280;56980;51.826;4.424;2022-10-22T06:26:43;101092.03;;;15.77;78.21
69713;BME280;56980;51.826;4.424;2022-10-22T06:29:09;101104.66;;;15.75;78.63
69713;BME280;56980;51.826;4.424;2022-10-22T06:31:35;101097.28;;;15.66;78.42
69713;BME280;56980;51.826;4.424;2022-10-22T06:34:04;101090.84;;;15.55;79.04
69713;BME280;56980;51.826;4.424;2022-10-22T06:36:30;101097.44;;;15.63;78.95
69713;BME280;56980;51.826;4.424;2022-10-22T06:38:56;101089.44;;;15.50;79.21
69713;BME280;56980;51.826;4.424;2022-10-22T06:41:23;101086.16;;;15.46;78.95
69713;BME280;56980;51.826;4.424;2022-10-22T06:43:52;101093.84;;;15.57;78.27
69713;BME280;56980;51.826;4.424;2022-10-22T06:46:19;101089.19;;;15.48;78.23
69713;BME280;56980;51.826;4.424;2022-10-22T06:48:55;101088.88;;;15.46;78.27
69713;BME280;56980;51.826;4.424;2022-10-22T06:51:26;101059.06;;;15.33;78.63
69713;BME280;56980;51.826;4.424;2022-10-22T06:53:54;101104.63;;;15.51;78.88
69713;BME280;56980;51.826;4.424;2022-10-22T06:56:23;101065.38;;;15.16;79.34
69713;BME280;56980;51.826;4.424;2022-10-22T06:58:53;101124.03;;;15.62;78.36
69713;BME280;56980;51.826;4.424;2022-10-22T07:01:29;101080.63;;;15.31;78.40
69713;BME280;56980;51.826;4.424;2022-10-22T07:03:57;101086.19;;;15.37;78.71
69713;BME280;56980;51.826;4.424;2022-10-22T07:06:25;101116.09;;;15.64;78.09
69713;BME280;56980;51.826;4.424;2022-10-22T07:09:02;101082.91;;;15.24;79.01
69713;BME280;56980;51.826;4.424;2022-10-22T07:11:32;101089.78;;;15.43;78.08
69713;BME280;56980;51.826;4.424;2022-10-22T07:17:25;101168.38;;;15.81;78.14
69713;BME280;56980;51.826;4.424;2022-10-22T07:19:51;101175.41;;;15.97;77.79
69713;BME280;56980;51.826;4.424;2022-10-22T07:22:16;101190.88;;;16.00;77.75
69713;BME280;56980;51.826;4.424;2022-10-22T07:24:41;101164.66;;;15.93;77.43
69713;BME280;56980;51.826;4.424;2022-10-22T07:27:07;101190.34;;;15.87;78.32
69713;BME280;56980;51.826;4.424;2022-10-22T07:29:32;101193.31;;;15.98;78.04
69713;BME280;56980;51.826;4.424;2022-10-22T07:31:58;101199.47;;;15.83;78.59
69713;BME280;56980;51.826;4.424;2022-10-22T07:34:27;101215.50;;;16.00;78.64
69713;BME280;56980;51.826;4.424;2022-10-22T07:36:59;101196.28;;;15.85;79.07
69713;BME280;56980;51.826;4.424;2022-10-22T07:39:25;101201.81;;;16.00;78.23
69713;BME280;56980;51.826;4.424;2022-10-22T07:41:58;101224.50;;;16.15;78.19
69713;BME280;56980;51.826;4.424;2022-10-22T07:44:24;101230.81;;;15.97;78.90
69713;BME280;56980;51.826;4.424;2022-10-22T07:46:49;101230.25;;;16.17;78.15
69713;BME280;56980;51.826;4.424;2022-10-22T07:49:14;101238.59;;;16.22;77.60
69713;BME280;56980;51.826;4.424;2022-10-22T07:51:40;101218.91;;;16.33;76.99
69713;BME280;56980;51.826;4.424;2022-10-22T07:54:07;101246.00;;;16.46;77.20
69713;BME280;56980;51.826;4.424;2022-10-22T07:56:33;101246.59;;;16.26;78.04
69713;BME280;56980;51.826;4.424;2022-10-22T07:58:58;101248.69;;;16.31;77.86
69713;BME280;56980;51.826;4.424;2022-10-22T08:01:24;101247.91;;;16.16;78.38
69713;BME280;56980;51.826;4.424;2022-10-22T08:03:49;101215.03;;;16.01;78.41
69713;BME280;56980;51.826;4.424;2022-10-22T08:06:15;101247.53;;;16.23;78.16
69713;BME280;56980;51.826;4.424;2022-10-22T08:08:43;101246.81;;;16.37;78.03
69713;BME280;56980;51.826;4.424;2022-10-22T08:11:10;101254.63;;;16.06;78.57
69713;BME280;56980;51.826;4.424;2022-10-22T08:13:39;101272.69;;;16.36;77.85
69713;BME280;56980;51.826;4.424;2022-10-22T08:16:05;101283.69;;;16.27;77.80
69713;BME280;56980;51.826;4.424;2022-10-22T08:18:30;101277.78;;;16.19;78.28
69713;BME280;56980;51.826;4.424;2022-10-22T08:20:56;101283.97;;;16.29;77.74
69713;BME280;56980;51.826;4.424;2022-10-22T08:23:23;101261.28;;;16.14;77.78
69713;BME280;56980;51.826;4.424;2022-10-22T08:25:52;101293.09;;;16.02;79.34
69713;BME280;56980;51.826;4.424;2022-10-22T08:28:18;101224.41;;;15.76;78.24
69713;BME280;56980;51.826;4.424;2022-10-22T08:30:51;101215.72;;;15.87;77.80
69713;BME280;56980;51.826;4.424;2022-10-22T08:33:20;101251.06;;;15.91;78.67
69713;BME280;56980;51.826;4.424;2022-10-22T08:35:51;101262.78;;;16.15;78.34
69713;BME280;56980;51.826;4.424;2022-10-22T08:38:21;101302.69;;;16.45;77.85
69713;BME280;56980;51.826;4.424;2022-10-22T08:41:11;101263.03;;;16.02;78.28
69713;BME280;56980;51.826;4.424;2022-10-22T08:49:03;101303.97;;;16.11;79.14
69713;BME280;56980;51.826;4.424;2022-10-22T08:51:36;101255.91;;;15.96;78.73
69713;BME280;56980;51.826;4.424;2022-10-22T08:56:44;101315.06;;;16.64;77.77
69713;BME280;56980;51.826;4.424;2022-10-22T09:02:21;101333.28;;;16.68;78.19
69713;BME280;56980;51.826;4.424;2022-10-22T09:05:01;101330.91;;;16.60;78.89
69713;BME280;56980;51.826;4.424;2022-10-22T09:07:30;101308.78;;;16.49;78.58
69713;BME280;56980;51.826;4.424;2022-10-22T09:09:57;101325.22;;;16.88;77.92
69713;BME280;56980;51.826;4.424;2022-10-22T09:12:25;101277.22;;;16.39;78.12
69713;BME280;56980;51.826;4.424;2022-10-22T09:14:51;101281.66;;;16.60;77.32
69713;BME280;56980;51.826;4.424;2022-10-22T09:17:30;101327.38;;;16.84;77.65
69713;BME280;56980;51.826;4.424;2022-10-22T09:20:02;101359.88;;;17.29;76.62
69713;BME280;56980;51.826;4.424;2022-10-22T09:25:32;101352.25;;;16.71;77.61
69713;BME280;56980;51.826;4.424;2022-10-22T09:28:00;101363.31;;;17.00;77.01
69713;BME280;56980;51.826;4.424;2022-10-22T09:30:29;101358.22;;;17.08;76.11
69713;BME280;56980;51.826;4.424;2022-10-22T09:33:05;101362.75;;;17.11;76.42
69713;BME280;56980;51.826;4.424;2022-10-22T09:35:46;101363.34;;;17.15;76.30
69713;BME280;56980;51.826;4.424;2022-10-22T09:38:15;101362.59;;;17.29;75.88
69713;BME280;56980;51.826;4.424;2022-10-22T09:40:47;101340.09;;;17.25;75.10
69713;BME280;56980;51.826;4.424;2022-10-22T09:43:14;101337.59;;;16.83;75.65
69713;BME280;56980;51.826;4.424;2022-10-22T09:45:41;101383.94;;;17.25;75.47
69713;BME280;56980;51.826;4.424;2022-10-22T09:50:49;101392.75;;;17.59;74.64
69713;BME280;56980;51.826;4.424;2022-10-22T09:53:24;101381.69;;;17.38;74.25
69713;BME280;56980;51.826;4.424;2022-10-22T09:55:53;101394.28;;;17.60;74.04
69713;BME280;56980;51.826;4.424;2022-10-22T09:58:19;101386.03;;;17.45;74.10
69713;BME280;56980;51.826;4.424;2022-10-22T10:00:50;101392.06;;;17.34;74.48
69713;BME280;56980;51.826;4.424;2022-10-22T10:03:22;101390.41;;;17.37;74.14
69713;BME280;56980;51.826;4.424;2022-10-22T10:05:51;101406.13;;;17.66;73.27
69713;BME280;56980;51.826;4.424;2022-10-22T10:08:21;101389.88;;;17.62;73.65
69713;BME280;56980;51.826;4.424;2022-10-22T10:11:09;101360.91;;;17.17;74.00
69713;BME280;56980;51.826;4.424;2022-10-22T10:16:10;101418.91;;;17.84;72.12
69713;BME280;56980;51.826;4.424;2022-10-22T10:22:09;101395.50;;;17.59;72.31
69713;BME280;56980;51.826;4.424;2022-10-22T10:24:49;101404.66;;;17.56;71.82
69713;BME280;56980;51.826;4.424;2022-10-22T10:30:31;101437.31;;;17.83;71.32
69713;BME280;56980;51.826;4.424;2022-10-22T10:35:48;101457.00;;;17.96;71.16
69713;BME280;56980;51.826;4.424;2022-10-22T10:38:33;101447.03;;;18.13;70.94
69713;BME280;56980;51.826;4.424;2022-10-22T10:41:25;101433.91;;;17.88;71.37
69713;BME280;56980;51.826;4.424;2022-10-22T10:49:30;101462.97;;;18.59;69.34
69713;BME280;56980;51.826;4.424;2022-10-22T10:52:37;101470.31;;;18.82;68.00
69713;BME280;56980;51.826;4.424;2022-10-22T10:55:27;101458.09;;;18.34;68.40
69713;BME280;56980;51.826;4.424;2022-10-22T11:00:20;101466.06;;;18.17;69.54
69713;BME280;56980;51.826;4.424;2022-10-22T11:03:13;101465.16;;;18.40;68.99
69713;BME280;56980;51.826;4.424;2022-10-22T11:06:08;101468.22;;;18.28;69.12
69713;BME280;56980;51.826;4.424;2022-10-22T11:08:39;101471.16;;;18.24;68.49
69713;BME280;56980;51.826;4.424;2022-10-22T11:14:00;101444.22;;;17.93;68.88
69713;BME280;56980;51.826;4.424;2022-10-22T11:16:34;101470.59;;;18.20;68.79
69713;BME280;56980;51.826;4.424;2022-10-22T11:22:05;101475.69;;;18.12;68.69
69713;BME280;56980;51.826;4.424;2022-10-22T11:24:53;101463.88;;;18.21;68.58
69713;BME280;56980;51.826;4.424;2022-10-22T11:27:35;101469.66;;;18.08;69.51
69713;BME280;56980;51.826;4.424;2022-10-22T11:30:14;101477.28;;;18.34;68.78
69713;BME280;56980;51.826;4.424;2022-10-22T11:32:41;101443.66;;;17.89;69.83
69713;BME280;56980;51.826;4.424;2022-10-22T11:35:13;101441.47;;;18.08;68.46
69713;BME280;56980;51.826;4.424;2022-10-22T11:37:41;101467.75;;;18.58;68.61
69713;BME280;56980;51.826;4.424;2022-10-22T11:40:35;101478.16;;;18.25;69.70
69713;BME280;56980;51.826;4.424;2022-10-22T11:43:05;101483.06;;;18.65;68.87
69713;BME280;56980;51.826;4.424;2022-10-22T11:45:41;101441.00;;;18.59;68.29
69713;BME280;56980;51.826;4.424;2022-10-22T11:53:56;101436.13;;;18.34;70.25
69713;BME280;56980;51.826;4.424;2022-10-22T11:56:25;101479.91;;;18.92;69.35
69713;BME280;56980;51.826;4.424;2022-10-22T11:58:53;101487.78;;;18.65;68.62
69713;BME280;56980;51.826;4.424;2022-10-22T12:01:48;101492.19;;;18.77;67.62
69713;BME280;56980;51.826;4.424;2022-10-22T12:04:21;101476.88;;;18.70;67.48
69713;BME280;56980;51.826;4.424;2022-10-22T12:07:00;101435.22;;;18.72;67.07
69713;BME280;56980;51.826;4.424;2022-10-22T12:09:28;101434.19;;;18.54;67.16
69713;BME280;56980;51.826;4.424;2022-10-22T12:12:13;101483.59;;;18.69;67.74
69713;BME280;56980;51.826;4.424;2022-10-22T12:14:56;101462.44;;;18.40;67.17
69713;BME280;56980;51.826;4.424;2022-10-22T12:17:24;101446.91;;;18.52;67.45
69713;BME280;56980;51.826;4.424;2022-10-22T12:20:03;101479.63;;;18.70;67.57
69713;BME280;56980;51.826;4.424;2022-10-22T12:22:32;101488.16;;;18.92;67.79
69713;BME280;56980;51.826;4.424;2022-10-22T12:25:08;101482.00;;;18.63;68.51
69713;BME280;56980;51.826;4.424;2022-10-22T12:27:39;101506.50;;;18.66;68.52
69713;BME280;56980;51.826;4.424;2022-10-22T12:30:24;101503.28;;;18.53;69.42
69713;BME280;56980;51.826;4.424;2022-10-22T12:32:56;101464.50;;;18.60;67.65
69713;BME280;56980;51.826;4.424;2022-10-22T12:35:31;101492.16;;;18.56;67.86
69713;BME280;56980;51.826;4.424;2022-10-22T12:38:04;101493.66;;;18.92;67.92
69713;BME280;56980;51.826;4.424;2022-10-22T12:40:34;101496.00;;;18.99;67.63
69713;BME280;56980;51.826;4.424;2022-10-22T12:43:39;101487.09;;;18.70;67.95
69713;BME280;56980;51.826;4.424;2022-10-22T12:46:10;101482.81;;;19.04;66.53
69713;BME280;56980;51.826;4.424;2022-10-22T12:48:40;101473.34;;;19.25;65.46
69713;BME280;56980;51.826;4.424;2022-10-22T12:51:15;101456.69;;;18.73;66.12
69713;BME280;56980;51.826;4.424;2022-10-22T12:53:53;101430.34;;;18.81;65.83
69713;BME280;56980;51.826;4.424;2022-10-22T12:56:32;101425.81;;;18.58;66.13
69713;BME280;56980;51.826;4.424;2022-10-22T12:59:20;101488.16;;;19.13;65.41
69713;BME280;56980;51.826;4.424;2022-10-22T13:01:48;101449.72;;;19.13;64.69
69713;BME280;56980;51.826;4.424;2022-10-22T13:09:43;101414.50;;;19.11;64.57
69713;BME280;56980;51.826;4.424;2022-10-22T13:12:11;101415.78;;;18.95;63.66
69713;BME280;56980;51.826;4.424;2022-10-22T13:14:43;101449.72;;;19.13;63.92
69713;BME280;56980;51.826;4.424;2022-10-22T13:17:17;101490.50;;;19.60;63.70
69713;BME280;56980;51.826;4.424;2022-10-22T13:22:31;101471.56;;;19.22;63.39
69713;BME280;56980;51.826;4.424;2022-10-22T13:25:03;101486.31;;;19.45;62.97
69713;BME280;56980;51.826;4.424;2022-10-22T13:27:34;101486.31;;;19.65;63.43
69713;BME280;56980;51.826;4.424;2022-10-22T13:30:15;101450.53;;;19.59;62.84
69713;BME280;56980;51.826;4.424;2022-10-22T13:32:48;101447.91;;;19.50;62.77
69713;BME280;56980;51.826;4.424;2022-10-22T13:35:21;101454.66;;;19.49;62.30
69713;BME280;56980;51.826;4.424;2022-10-22T13:37:47;101431.53;;;19.41;62.38
69713;BME280;56980;51.826;4.424;2022-10-22T13:40:13;101442.75;;;19.37;62.57
69713;BME280;56980;51.826;4.424;2022-10-22T13:42:39;101476.16;;;19.30;62.52
69713;BME280;56980;51.826;4.424;2022-10-22T13:45:05;101472.91;;;19.72;62.16
69713;BME280;56980;51.826;4.424;2022-10-22T13:47:31;101475.94;;;19.34;62.37
69713;BME280;56980;51.826;4.424;2022-10-22T13:50:02;101440.94;;;19.09;62.53
69713;BME280;56980;51.826;4.424;2022-10-22T13:52:50;101497.75;;;19.58;61.94
69713;BME280;56980;51.826;4.424;2022-10-22T13:55:26;101431.56;;;19.21;61.86
69713;BME280;56980;51.826;4.424;2022-10-22T13:58:09;101438.44;;;19.31;61.33
69713;BME280;56980;51.826;4.424;2022-10-22T14:00:44;101479.66;;;19.11;62.14
69713;BME280;56980;51.826;4.424;2022-10-22T14:03:13;101502.19;;;19.15;62.64
69713;BME280;56980;51.826;4.424;2022-10-22T14:05:44;101511.25;;;19.21;63.10
69713;BME280;56980;51.826;4.424;2022-10-22T14:08:13;101481.31;;;19.23;62.68
69713;BME280;56980;51.826;4.424;2022-10-22T14:10:40;101442.38;;;19.04;62.25
69713;BME280;56980;51.826;4.424;2022-10-22T14:13:06;101505.22;;;19.37;62.85
69713;BME280;56980;51.826;4.424;2022-10-22T14:15:32;101476.63;;;19.09;63.50
69713;BME280;56980;51.826;4.424;2022-10-22T14:18:03;101438.31;;;19.20;62.39
69713;BME280;56980;51.826;4.424;2022-10-22T14:20:30;101479.69;;;19.51;62.58
69713;BME280;56980;51.826;4.424;2022-10-22T14:23:06;101512.78;;;19.62;61.96
69713;BME280;56980;51.826;4.424;2022-10-22T14:25:39;101484.59;;;19.07;63.87
69713;BME280;56980;51.826;4.424;2022-10-22T14:28:05;101439.34;;;19.22;62.55
69713;BME280;56980;51.826;4.424;2022-10-22T14:30:34;101446.13;;;19.47;62.15
69713;BME280;56980;51.826;4.424;2022-10-22T14:32:59;101504.66;;;19.53;62.97